Time;durP1;ratioP1;P1;durP2;ratioP2;P2;SDS_P1;SDS_P2;PMS_P1;PMS_P2;Temp;Humidity;BMP_temperature;BMP_pressure;BME280_temperature;BME280_humidity;BME280_pressure;Samples;Min_cycle;Max_cycle;Signal;HPM_P1;HPM_P2
2022/04/25 00:02:25;;;;;;;11.48;9.07;;;;;;;;;;5041447;28;20036;-65
2022/04/25 00:04:51;;;;;;;8.77;7.88;;;;;;;;;;5040257;28;20120;-65
2022/04/25 00:07:17;;;;;;;7.97;7.18;;;;;;;;;;5045366;28;20048;-66
2022/04/25 00:09:43;;;;;;;10.45;7.60;;;;;;;;;;5037387;28;20037;-65
2022/04/25 00:12:10;;;;;;;9.02;7.13;;;;;;;;;;5045359;28;20106;-66
2022/04/25 00:14:35;;;;;;;8.25;6.65;;;;;;;;;;5039708;28;20036;-66
2022/04/25 00:17:01;;;;;;;7.28;6.47;;;;;;;;;;5043768;28;20112;-65
2022/04/25 00:19:27;;;;;;;7.72;6.72;;;;;;;;;;5045441;28;20140;-65
2022/04/25 00:21:53;;;;;;;8.73;6.25;;;;;;;;;;5041047;28;20541;-65
2022/04/25 00:24:19;;;;;;;6.95;6.25;;;;;;;;;;5039034;28;20116;-65
2022/04/25 00:26:45;;;;;;;7.20;6.45;;;;;;;;;;5042431;28;20025;-65
2022/04/25 00:29:11;;;;;;;7.82;5.90;;;;;;;;;;5042011;28;20496;-65
2022/04/25 00:31:39;;;;;;;6.68;5.97;;;;;;;;;;5038367;28;20025;-65
2022/04/25 00:34:04;;;;;;;8.85;6.25;;;;;;;;;;5041144;28;20036;-65
2022/04/25 00:36:30;;;;;;;7.80;5.95;;;;;;;;;;5040246;28;20040;-65
2022/04/25 00:38:56;;;;;;;7.70;5.78;;;;;;;;;;5042227;28;20037;-65
2022/04/25 00:41:21;;;;;;;10.52;5.90;;;;;;;;;;5044086;28;20047;-65
2022/04/25 00:43:47;;;;;;;7.43;5.85;;;;;;;;;;5043163;28;20033;-57
2022/04/25 00:46:24;;;;;;;6.63;5.70;;;;;;;;;;5043205;28;20039;-65
2022/04/25 00:48:50;;;;;;;9.70;5.60;;;;;;;;;;5041827;28;20029;-65
2022/04/25 00:51:17;;;;;;;6.00;5.25;;;;;;;;;;5036106;28;20030;-65
2022/04/25 00:53:44;;;;;;;12.18;5.43;;;;;;;;;;5036137;28;20041;-65
2022/04/25 00:56:13;;;;;;;5.80;5.25;;;;;;;;;;5039653;28;20041;-65
2022/04/25 00:58:39;;;;;;;5.93;5.32;;;;;;;;;;5037760;28;20106;-65
2022/04/25 01:01:04;;;;;;;11.85;5.82;;;;;;;;;;5036587;28;20123;-65
2022/04/25 01:03:30;;;;;;;9.82;5.80;;;;;;;;;;5040942;28;20037;-65
2022/04/25 01:05:56;;;;;;;9.50;5.53;;;;;;;;;;5039882;28;20032;-65
2022/04/25 01:08:22;;;;;;;9.10;5.53;;;;;;;;;;5048027;28;20104;-65
2022/04/25 01:10:48;;;;;;;10.35;6.30;;;;;;;;;;5037515;28;20075;-65
2022/04/25 01:13:14;;;;;;;10.77;5.82;;;;;;;;;;5042686;28;20029;-65
2022/04/25 01:15:40;;;;;;;8.60;5.38;;;;;;;;;;5039836;28;20028;-65
2022/04/25 01:18:06;;;;;;;11.55;6.40;;;;;;;;;;5039402;28;20116;-64
2022/04/25 01:20:32;;;;;;;8.98;6.00;;;;;;;;;;5039701;28;20113;-65
2022/04/25 01:28:35;;;;;;;6.82;5.68;;;;;;;;;;5038999;28;20356;-65
2022/04/25 01:31:01;;;;;;;7.88;6.45;;;;;;;;;;5059016;28;20120;-65
2022/04/25 01:33:27;;;;;;;8.38;6.20;;;;;;;;;;5034803;28;20029;-65
2022/04/25 01:35:53;;;;;;;6.40;5.78;;;;;;;;;;5043159;28;20029;-65
2022/04/25 01:38:19;;;;;;;6.88;5.50;;;;;;;;;;5039420;28;20032;-66
2022/04/25 01:40:44;;;;;;;8.10;5.88;;;;;;;;;;5037870;28;20406;-65
2022/04/25 01:43:10;;;;;;;7.65;5.97;;;;;;;;;;5039502;28;20032;-65
2022/04/25 01:45:36;;;;;;;13.95;6.47;;;;;;;;;;5042684;28;20033;-66
2022/04/25 01:48:02;;;;;;;6.57;5.97;;;;;;;;;;5040308;28;20039;-65
2022/04/25 01:50:28;;;;;;;7.15;5.90;;;;;;;;;;5040549;28;20031;-65
2022/04/25 01:52:53;;;;;;;12.15;6.85;;;;;;;;;;5045995;28;20397;-65
2022/04/25 01:55:19;;;;;;;11.65;6.55;;;;;;;;;;5041891;28;20029;-65
2022/04/25 01:57:45;;;;;;;8.52;5.95;;;;;;;;;;5040395;28;20040;-65
2022/04/25 02:00:11;;;;;;;9.25;6.30;;;;;;;;;;5037856;28;20018;-65
2022/04/25 02:02:37;;;;;;;8.63;6.53;;;;;;;;;;5035159;28;20036;-65
2022/04/25 02:05:06;;;;;;;10.43;5.82;;;;;;;;;;5038072;28;20025;-65
2022/04/25 02:07:33;;;;;;;6.47;5.78;;;;;;;;;;5042610;28;20032;-65
2022/04/25 02:09:58;;;;;;;8.75;6.07;;;;;;;;;;5035830;28;20036;-65
2022/04/25 02:12:24;;;;;;;6.75;6.15;;;;;;;;;;5040741;28;20496;-65
2022/04/25 02:14:50;;;;;;;6.30;5.70;;;;;;;;;;5041146;28;20090;-65
2022/04/25 02:17:16;;;;;;;9.40;6.15;;;;;;;;;;5034468;28;20411;-65
2022/04/25 02:19:44;;;;;;;9.77;6.00;;;;;;;;;;5036173;28;20576;-65
2022/04/25 02:22:11;;;;;;;7.50;5.85;;;;;;;;;;5042807;28;20083;-65
2022/04/25 02:24:38;;;;;;;9.32;6.38;;;;;;;;;;5038079;28;20039;-65
2022/04/25 02:27:05;;;;;;;7.47;6.25;;;;;;;;;;5037665;28;20090;-65
2022/04/25 02:29:32;;;;;;;7.50;6.70;;;;;;;;;;5037649;28;20021;-65
2022/04/25 02:31:59;;;;;;;16.67;8.88;;;;;;;;;;5039157;28;20044;-64
2022/04/25 02:34:25;;;;;;;11.18;7.97;;;;;;;;;;5035253;28;20029;-65
2022/04/25 02:36:51;;;;;;;10.10;7.68;;;;;;;;;;5042931;28;20151;-65
2022/04/25 02:39:17;;;;;;;9.93;7.90;;;;;;;;;;5038922;28;20124;-65
2022/04/25 02:41:42;;;;;;;7.70;6.75;;;;;;;;;;5034021;28;20041;-65
2022/04/25 02:44:08;;;;;;;8.40;6.72;;;;;;;;;;5042923;28;20506;-65
2022/04/25 02:46:34;;;;;;;7.10;6.40;;;;;;;;;;5037528;28;20502;-65
2022/04/25 02:48:59;;;;;;;9.85;6.68;;;;;;;;;;5037758;28;20473;-64
2022/04/25 02:51:25;;;;;;;6.93;6.25;;;;;;;;;;5035142;28;20025;-65
2022/04/25 02:53:51;;;;;;;9.18;6.72;;;;;;;;;;5037845;28;20069;-65
2022/04/25 02:56:16;;;;;;;7.78;6.50;;;;;;;;;;5040749;28;20029;-65
2022/04/25 02:58:42;;;;;;;9.60;6.10;;;;;;;;;;5039177;28;20058;-65
2022/04/25 03:01:08;;;;;;;11.00;6.57;;;;;;;;;;5037930;28;20041;-64
2022/04/25 03:03:36;;;;;;;7.80;6.53;;;;;;;;;;5039373;28;20036;-64
2022/04/25 03:06:04;;;;;;;7.18;6.53;;;;;;;;;;5037244;28;20481;-65
2022/04/25 03:08:30;;;;;;;9.25;6.50;;;;;;;;;;5039043;28;20032;-65
2022/04/25 03:10:57;;;;;;;11.27;6.90;;;;;;;;;;5039696;28;20037;-65
2022/04/25 03:13:26;;;;;;;7.00;6.30;;;;;;;;;;5040693;28;20025;-64
2022/04/25 03:15:52;;;;;;;9.10;7.03;;;;;;;;;;5044242;28;20067;-65
2022/04/25 03:18:19;;;;;;;7.07;6.10;;;;;;;;;;5038594;28;20112;-65
2022/04/25 03:20:48;;;;;;;12.00;7.38;;;;;;;;;;5038481;28;20056;-65
2022/04/25 03:23:15;;;;;;;9.15;7.03;;;;;;;;;;5045426;28;20036;-65
2022/04/25 03:25:41;;;;;;;7.75;6.95;;;;;;;;;;5037483;28;20037;-65
2022/04/25 03:28:07;;;;;;;9.40;7.43;;;;;;;;;;5035804;28;20029;-65
2022/04/25 03:30:32;;;;;;;12.30;6.85;;;;;;;;;;5035153;28;20041;-65
2022/04/25 03:32:58;;;;;;;9.30;8.32;;;;;;;;;;5037421;28;20036;-65
2022/04/25 03:35:25;;;;;;;10.10;7.75;;;;;;;;;;5039713;28;20052;-65
2022/04/25 03:37:52;;;;;;;13.40;10.32;;;;;;;;;;5037458;28;20044;-65
2022/04/25 03:40:18;;;;;;;18.35;10.35;;;;;;;;;;5047238;28;20037;-65
2022/04/25 03:42:45;;;;;;;14.25;10.55;;;;;;;;;;5040283;28;20025;-65
2022/04/25 03:45:12;;;;;;;18.25;13.50;;;;;;;;;;5037364;28;20463;-65
2022/04/25 03:47:39;;;;;;;14.52;11.15;;;;;;;;;;5031071;28;20041;-65
2022/04/25 03:50:07;;;;;;;13.55;10.80;;;;;;;;;;5035328;28;20093;-65
2022/04/25 03:52:34;;;;;;;9.60;8.50;;;;;;;;;;5037016;28;20033;-65
2022/04/25 03:57:44;;;;;;;18.83;8.82;;;;;;;;;;5040876;28;20029;-64
2022/04/25 04:00:11;;;;;;;10.25;8.50;;;;;;;;;;5042356;28;20041;-65
2022/04/25 04:02:37;;;;;;;24.42;17.98;;;;;;;;;;5038478;28;20045;-64
2022/04/25 04:05:03;;;;;;;36.42;26.20;;;;;;;;;;5038219;28;20059;-65
2022/04/25 04:07:29;;;;;;;24.95;17.08;;;;;;;;;;5040771;28;20486;-64
2022/04/25 04:09:55;;;;;;;17.10;13.98;;;;;;;;;;5035212;28;20032;-65
2022/04/25 04:12:24;;;;;;;18.67;8.20;;;;;;;;;;5040180;28;20037;-65
2022/04/25 04:14:50;;;;;;;10.10;7.93;;;;;;;;;;5039047;28;20041;-65
2022/04/25 04:17:17;;;;;;;12.88;10.07;;;;;;;;;;5034203;28;20104;-65
2022/04/25 04:19:44;;;;;;;15.90;12.25;;;;;;;;;;5043812;28;20040;-64
2022/04/25 04:22:10;;;;;;;18.15;11.85;;;;;;;;;;5034098;28;20060;-65
2022/04/25 04:24:36;;;;;;;13.18;10.05;;;;;;;;;;5037406;28;20033;-65
2022/04/25 04:27:04;;;;;;;20.80;14.10;;;;;;;;;;5044347;28;20495;-64
2022/04/25 04:29:34;;;;;;;11.90;10.20;;;;;;;;;;5042877;28;20025;-65
2022/04/25 04:32:02;;;;;;;12.18;9.93;;;;;;;;;;5046814;28;20022;-64
2022/04/25 04:34:29;;;;;;;12.68;9.57;;;;;;;;;;5039220;28;20756;-65
2022/04/25 04:36:55;;;;;;;14.25;8.60;;;;;;;;;;5044683;28;20037;-65
2022/04/25 04:39:21;;;;;;;12.48;8.38;;;;;;;;;;5040328;28;20025;-65
2022/04/25 04:41:47;;;;;;;9.18;8.27;;;;;;;;;;5040573;28;20036;-65
2022/04/25 04:44:13;;;;;;;9.07;6.65;;;;;;;;;;5040835;28;20116;-65
2022/04/25 04:46:40;;;;;;;7.55;6.93;;;;;;;;;;5045293;28;20450;-65
2022/04/25 04:49:05;;;;;;;13.30;8.13;;;;;;;;;;5047168;28;20048;-65
2022/04/25 04:51:31;;;;;;;8.60;7.80;;;;;;;;;;5039588;28;20017;-65
2022/04/25 04:54:01;;;;;;;10.45;8.57;;;;;;;;;;5043501;28;20128;-65
2022/04/25 04:56:29;;;;;;;12.50;8.43;;;;;;;;;;5042649;28;20107;-65
2022/04/25 04:58:55;;;;;;;10.98;8.68;;;;;;;;;;5037338;28;20059;-65
2022/04/25 05:01:21;;;;;;;11.85;8.93;;;;;;;;;;5043997;28;20032;-65
2022/04/25 05:03:46;;;;;;;17.10;8.18;;;;;;;;;;5041316;28;20474;-65
2022/04/25 05:06:13;;;;;;;18.27;7.75;;;;;;;;;;5042407;28;20037;-65
2022/04/25 05:08:39;;;;;;;9.63;7.90;;;;;;;;;;5042338;28;20446;-65
2022/04/25 05:11:07;;;;;;;13.40;8.70;;;;;;;;;;5038520;28;20036;-65
2022/04/25 05:13:33;;;;;;;8.57;7.53;;;;;;;;;;5043613;28;20036;-65
2022/04/25 05:15:58;;;;;;;7.80;7.03;;;;;;;;;;5039098;28;21135;-64
2022/04/25 05:18:24;;;;;;;9.68;6.57;;;;;;;;;;5042549;28;20115;-64
2022/04/25 05:20:51;;;;;;;8.18;6.55;;;;;;;;;;5038923;28;20068;-64
2022/04/25 05:23:17;;;;;;;12.50;6.82;;;;;;;;;;5037029;28;20879;-64
2022/04/25 05:25:43;;;;;;;9.13;7.07;;;;;;;;;;5043674;28;20158;-64
2022/04/25 05:28:08;;;;;;;12.88;6.93;;;;;;;;;;5040061;28;20028;-65
2022/04/25 05:30:35;;;;;;;9.18;7.07;;;;;;;;;;5040604;28;20433;-65
2022/04/25 05:33:02;;;;;;;9.85;7.13;;;;;;;;;;5042213;28;20025;-65
2022/04/25 05:35:30;;;;;;;11.85;6.78;;;;;;;;;;5042245;28;20029;-65
2022/04/25 05:37:56;;;;;;;9.23;6.80;;;;;;;;;;5039347;28;20022;-65
2022/04/25 05:40:23;;;;;;;13.45;8.52;;;;;;;;;;5041340;28;20032;-64
2022/04/25 05:42:50;;;;;;;12.77;8.10;;;;;;;;;;5042753;28;20157;-65
2022/04/25 05:45:19;;;;;;;16.67;7.90;;;;;;;;;;5037687;28;20026;-65
2022/04/25 05:47:44;;;;;;;9.60;8.13;;;;;;;;;;5038663;28;20025;-65
2022/04/25 05:52:57;;;;;;;12.35;7.05;;;;;;;;;;5039122;28;20117;-65
2022/04/25 05:55:23;;;;;;;10.52;7.78;;;;;;;;;;5039263;28;20021;-65
2022/04/25 05:57:50;;;;;;;8.18;7.30;;;;;;;;;;5038857;28;20029;-65
2022/04/25 06:00:17;;;;;;;11.43;7.95;;;;;;;;;;5039485;28;20391;-65
2022/04/25 06:02:44;;;;;;;10.88;7.80;;;;;;;;;;5041784;28;20036;-65
2022/04/25 06:05:11;;;;;;;9.63;8.27;;;;;;;;;;5041152;28;20108;-65
2022/04/25 06:07:46;;;;;;;18.50;7.63;;;;;;;;;;5034898;28;20041;-65
2022/04/25 06:10:13;;;;;;;10.40;7.57;;;;;;;;;;5037756;28;20033;-65
2022/04/25 06:12:44;;;;;;;10.90;7.38;;;;;;;;;;5039496;28;20021;-65
2022/04/25 06:15:11;;;;;;;13.02;7.57;;;;;;;;;;5044395;28;20029;-65
2022/04/25 06:17:37;;;;;;;12.00;7.55;;;;;;;;;;5041536;28;20028;-65
2022/04/25 06:20:05;;;;;;;8.73;7.85;;;;;;;;;;5032588;28;20496;-65
2022/04/25 06:22:30;;;;;;;16.88;7.85;;;;;;;;;;5033235;28;20040;-65
2022/04/25 06:24:56;;;;;;;13.77;8.15;;;;;;;;;;5038324;28;20025;-65
2022/04/25 06:27:22;;;;;;;13.82;7.78;;;;;;;;;;5046314;28;20075;-65
2022/04/25 06:29:48;;;;;;;14.25;7.97;;;;;;;;;;5037292;28;20040;-65
2022/04/25 06:32:14;;;;;;;11.32;7.80;;;;;;;;;;5035034;28;20665;-65
2022/04/25 06:34:40;;;;;;;8.65;7.70;;;;;;;;;;5036983;28;20060;-65
2022/04/25 06:37:07;;;;;;;13.07;8.20;;;;;;;;;;5036449;28;20032;-66
2022/04/25 06:39:33;;;;;;;12.88;8.10;;;;;;;;;;5035295;28;20033;-65
2022/04/25 06:42:00;;;;;;;13.45;9.13;;;;;;;;;;5038854;28;20108;-65
2022/04/25 06:44:27;;;;;;;14.63;9.00;;;;;;;;;;5033891;28;20106;-65
2022/04/25 06:46:53;;;;;;;17.77;8.68;;;;;;;;;;5037688;28;20136;-65
2022/04/25 06:49:23;;;;;;;17.65;9.43;;;;;;;;;;5037916;28;20108;-65
2022/04/25 06:51:51;;;;;;;12.45;6.00;;;;;;;;;;5037960;28;20112;-64
2022/04/25 06:54:17;;;;;;;10.93;5.88;;;;;;;;;;5036133;28;20945;-65
2022/04/25 06:56:43;;;;;;;10.45;6.20;;;;;;;;;;5034010;28;20032;-65
2022/04/25 06:59:08;;;;;;;7.95;5.32;;;;;;;;;;5035694;28;20104;-65
2022/04/25 07:01:35;;;;;;;12.05;5.47;;;;;;;;;;5036883;28;20029;-65
2022/04/25 07:04:02;;;;;;;7.45;5.15;;;;;;;;;;5038038;28;20033;-65
2022/04/25 07:06:28;;;;;;;12.07;4.82;;;;;;;;;;5042283;28;20029;-65
2022/04/25 07:08:54;;;;;;;10.88;4.95;;;;;;;;;;5035368;28;20053;-65
2022/04/25 07:11:19;;;;;;;8.23;5.40;;;;;;;;;;5034602;28;20027;-65
2022/04/25 07:13:46;;;;;;;9.60;4.93;;;;;;;;;;5036008;28;20095;-65
2022/04/25 07:16:12;;;;;;;8.52;4.75;;;;;;;;;;5040894;28;20067;-65
2022/04/25 07:18:39;;;;;;;10.88;5.03;;;;;;;;;;5040708;28;20056;-65
2022/04/25 07:28:48;;;;;;;6.43;5.25;;;;;;;;;;5035374;28;20029;-65
2022/04/25 07:29:20;;;;;;;7.95;5.35;;;;;;;;;;5032574;28;20025;-65
2022/04/25 07:31:47;;;;;;;10.32;5.05;;;;;;;;;;5038314;28;20052;-65
2022/04/25 07:34:12;;;;;;;5.60;4.40;;;;;;;;;;5036410;28;20123;-65
2022/04/25 07:36:38;;;;;;;8.25;4.53;;;;;;;;;;5035571;28;20061;-65
2022/04/25 07:39:04;;;;;;;7.05;4.70;;;;;;;;;;5041346;28;20029;-65
2022/04/25 07:41:29;;;;;;;7.93;4.50;;;;;;;;;;5034906;28;20036;-65
2022/04/25 07:43:56;;;;;;;6.15;4.50;;;;;;;;;;5031350;28;20438;-65
2022/04/25 07:46:25;;;;;;;8.70;4.65;;;;;;;;;;5036156;28;20037;-65
2022/04/25 07:48:54;;;;;;;6.68;4.82;;;;;;;;;;5040690;28;20030;-65
2022/04/25 07:51:19;;;;;;;9.13;4.35;;;;;;;;;;5034675;28;20521;-65
2022/04/25 07:53:45;;;;;;;9.02;4.90;;;;;;;;;;5033241;28;20045;-65
2022/04/25 07:56:11;;;;;;;7.68;4.28;;;;;;;;;;5033274;28;20029;-66
2022/04/25 07:58:37;;;;;;;7.03;4.32;;;;;;;;;;5042635;28;20036;-65
2022/04/25 08:01:03;;;;;;;6.45;4.05;;;;;;;;;;5040268;28;20037;-65
2022/04/25 08:03:29;;;;;;;7.68;4.13;;;;;;;;;;5042348;28;20037;-65
2022/04/25 08:05:55;;;;;;;5.65;3.70;;;;;;;;;;5039250;28;20033;-65
2022/04/25 08:08:21;;;;;;;5.07;3.97;;;;;;;;;;5037649;28;20382;-66
2022/04/25 08:10:47;;;;;;;4.97;3.97;;;;;;;;;;5036547;28;20036;-65
2022/04/25 08:18:41;;;;;;;7.05;4.03;;;;;;;;;;5037524;28;20025;-66
2022/04/25 08:21:07;;;;;;;10.65;4.00;;;;;;;;;;5040937;28;20040;-66
2022/04/25 08:23:33;;;;;;;6.97;4.13;;;;;;;;;;5038401;28;20056;-66
2022/04/25 08:25:59;;;;;;;12.50;4.72;;;;;;;;;;5035222;28;20083;-66
2022/04/25 08:28:43;;;;;;;6.63;4.18;;;;;;;;;;5045025;28;20382;-65
2022/04/25 08:31:09;;;;;;;12.43;3.92;;;;;;;;;;5039094;28;20026;-65
2022/04/25 08:33:36;;;;;;;6.50;4.03;;;;;;;;;;5039455;28;20022;-66
2022/04/25 08:36:03;;;;;;;7.43;3.90;;;;;;;;;;5035649;28;20041;-66
2022/04/25 08:38:29;;;;;;;5.32;3.65;;;;;;;;;;5037862;28;20035;-64
2022/04/25 08:40:55;;;;;;;5.18;3.92;;;;;;;;;;5041957;28;20489;-66
2022/04/25 08:43:23;;;;;;;9.98;4.10;;;;;;;;;;5040007;28;20033;-66
2022/04/25 08:45:52;;;;;;;8.60;3.78;;;;;;;;;;5043858;28;20494;-62
2022/04/25 08:48:36;;;;;;;6.43;3.53;;;;;;;;;;5040426;28;20029;-66
2022/04/25 08:51:02;;;;;;;16.40;4.90;;;;;;;;;;5036723;28;20029;-67
2022/04/25 08:53:29;;;;;;;7.43;3.90;;;;;;;;;;5046651;28;20056;-66
2022/04/25 08:55:55;;;;;;;7.82;4.15;;;;;;;;;;5038642;28;21091;-66
2022/04/25 08:58:22;;;;;;;9.05;4.03;;;;;;;;;;5039227;28;20119;-65
2022/04/25 09:00:48;;;;;;;9.98;3.88;;;;;;;;;;5038045;28;20142;-65
2022/04/25 09:03:14;;;;;;;8.43;3.60;;;;;;;;;;5042101;28;20132;-66
2022/04/25 09:05:41;;;;;;;4.25;3.47;;;;;;;;;;5038122;28;20096;-65
2022/04/25 09:08:07;;;;;;;7.63;3.67;;;;;;;;;;5045002;28;20031;-65
2022/04/25 09:10:33;;;;;;;3.55;3.20;;;;;;;;;;5038564;28;20037;-66
2022/04/25 09:13:00;;;;;;;9.82;3.70;;;;;;;;;;5041827;28;20029;-66
2022/04/25 09:15:25;;;;;;;5.63;3.58;;;;;;;;;;5045981;28;20502;-65
2022/04/25 09:17:55;;;;;;;4.43;3.33;;;;;;;;;;5038253;28;20035;-66
2022/04/25 09:20:21;;;;;;;6.97;3.50;;;;;;;;;;5036923;28;20541;-65
2022/04/25 09:22:48;;;;;;;6.35;2.92;;;;;;;;;;5035530;28;20397;-65
2022/04/25 09:25:15;;;;;;;6.68;3.00;;;;;;;;;;5040453;28;20560;-66
2022/04/25 09:27:42;;;;;;;11.35;3.63;;;;;;;;;;5040919;28;20025;-66
2022/04/25 09:30:21;;;;;;;6.20;3.47;;;;;;;;;;5039620;28;20040;-66
2022/04/25 09:32:52;;;;;;;7.22;3.72;;;;;;;;;;5037506;28;20106;-64
2022/04/25 09:35:28;;;;;;;6.25;3.55;;;;;;;;;;5034594;28;20048;-66
2022/04/25 09:37:54;;;;;;;3.75;3.08;;;;;;;;;;5035332;28;20031;-66
2022/04/25 09:40:24;;;;;;;6.78;3.15;;;;;;;;;;5037817;28;20068;-66
2022/04/25 09:43:11;;;;;;;8.45;3.10;;;;;;;;;;5037268;28;20128;-66
2022/04/25 09:45:41;;;;;;;6.80;3.00;;;;;;;;;;5044854;28;20026;-66
2022/04/25 09:48:23;;;;;;;4.32;3.30;;;;;;;;;;5034190;28;20497;-64
2022/04/25 09:51:07;;;;;;;5.25;3.05;;;;;;;;;;5038562;28;20056;-66
2022/04/25 09:53:44;;;;;;;6.10;3.28;;;;;;;;;;5040401;28;20049;-66
2022/04/25 09:56:11;;;;;;;5.25;3.00;;;;;;;;;;5042559;28;20438;-67
2022/04/25 09:58:37;;;;;;;4.03;2.85;;;;;;;;;;5035119;28;20060;-66
2022/04/25 10:01:14;;;;;;;7.30;3.08;;;;;;;;;;5036550;28;20036;-66
2022/04/25 10:03:41;;;;;;;10.95;3.75;;;;;;;;;;5034262;28;20021;-66
2022/04/25 10:06:08;;;;;;;9.00;3.08;;;;;;;;;;5043114;28;20063;-65
2022/04/25 10:08:35;;;;;;;3.60;3.20;;;;;;;;;;5040752;28;20025;-65
2022/04/25 10:11:09;;;;;;;8.48;3.45;;;;;;;;;;5035964;28;20032;-67
2022/04/25 10:13:36;;;;;;;5.13;2.97;;;;;;;;;;5039957;28;20030;-66
2022/04/25 10:16:02;;;;;;;7.85;3.13;;;;;;;;;;5038503;28;20036;-67
2022/04/25 10:18:32;;;;;;;5.53;3.00;;;;;;;;;;5037357;28;20501;-67
2022/04/25 10:20:59;;;;;;;12.90;3.35;;;;;;;;;;5043787;28;20041;-67
2022/04/25 10:23:25;;;;;;;5.32;2.78;;;;;;;;;;5034781;28;20051;-67
2022/04/25 10:26:01;;;;;;;4.72;2.60;;;;;;;;;;5040463;28;20033;-67
2022/04/25 10:31:27;;;;;;;5.57;2.40;;;;;;;;;;5039438;28;20022;-67
2022/04/25 10:33:56;;;;;;;4.18;2.25;;;;;;;;;;5040311;28;20076;-67
2022/04/25 10:36:37;;;;;;;4.47;2.92;;;;;;;;;;5038464;28;20056;-67
2022/04/25 10:39:27;;;;;;;4.75;2.70;;;;;;;;;;5037045;28;20063;-67
2022/04/25 10:44:37;;;;;;;6.07;2.33;;;;;;;;;;5036279;28;20037;-66
2022/04/25 10:47:03;;;;;;;5.35;2.42;;;;;;;;;;5035227;28;20111;-67
2022/04/25 10:49:40;;;;;;;6.68;2.10;;;;;;;;;;5040446;28;20048;-67
2022/04/25 10:52:54;;;;;;;3.97;2.50;;;;;;;;;;5042494;28;20537;-67
2022/04/25 10:55:35;;;;;;;5.07;2.67;;;;;;;;;;5034336;28;20130;-65
2022/04/25 10:58:03;;;;;;;7.43;2.47;;;;;;;;;;5039050;28;20029;-67
2022/04/25 11:00:38;;;;;;;3.10;2.42;;;;;;;;;;5037678;28;20036;-65
2022/04/25 11:03:14;;;;;;;7.32;2.80;;;;;;;;;;5038321;28;20049;-66
2022/04/25 11:05:44;;;;;;;4.60;2.42;;;;;;;;;;5035040;28;20398;-66
2022/04/25 11:08:15;;;;;;;7.53;2.55;;;;;;;;;;5043916;28;20037;-67
2022/04/25 11:11:01;;;;;;;8.00;2.90;;;;;;;;;;5040269;28;20489;-67
2022/04/25 11:13:31;;;;;;;7.03;2.83;;;;;;;;;;5034540;28;20099;-66
2022/04/25 11:16:19;;;;;;;8.63;3.25;;;;;;;;;;5037852;28;20402;-66
2022/04/25 11:18:45;;;;;;;7.68;2.88;;;;;;;;;;5037051;28;20382;-66
2022/04/25 11:21:16;;;;;;;5.80;2.72;;;;;;;;;;5039649;28;20527;-66
2022/04/25 11:23:44;;;;;;;7.00;2.53;;;;;;;;;;5040222;28;20021;-66
2022/04/25 11:26:36;;;;;;;4.00;2.53;;;;;;;;;;5041197;28;20052;-66
2022/04/25 11:29:09;;;;;;;5.95;2.80;;;;;;;;;;5035474;28;24947;-66
2022/04/25 11:31:37;;;;;;;7.00;2.95;;;;;;;;;;5040545;28;20025;-67
2022/04/25 11:34:07;;;;;;;3.70;2.70;;;;;;;;;;5040755;28;20025;-66
2022/04/25 11:36:38;;;;;;;9.43;3.30;;;;;;;;;;5046154;28;20024;-66
2022/04/25 11:41:49;;;;;;;6.32;4.30;;;;;;;;;;5042183;28;20052;-59
2022/04/25 11:44:15;;;;;;;7.03;3.90;;;;;;;;;;5043557;28;20386;-65
2022/04/25 11:46:42;;;;;;;9.05;4.03;;;;;;;;;;5037068;28;20041;-66
2022/04/25 11:49:08;;;;;;;8.60;3.95;;;;;;;;;;5048592;28;20032;-66
2022/04/25 11:51:35;;;;;;;4.13;2.90;;;;;;;;;;5046577;28;20078;-66
2022/04/25 11:54:04;;;;;;;8.45;3.60;;;;;;;;;;5040492;28;20048;-65
2022/04/25 11:56:35;;;;;;;9.73;3.08;;;;;;;;;;5038547;28;20033;-66
2022/04/25 11:59:21;;;;;;;4.93;3.45;;;;;;;;;;5036845;28;20021;-67
2022/04/25 12:01:50;;;;;;;8.93;2.80;;;;;;;;;;5045880;28;20041;-67
2022/04/25 12:04:27;;;;;;;5.03;2.40;;;;;;;;;;5038691;28;20044;-66
2022/04/25 12:06:58;;;;;;;11.07;3.03;;;;;;;;;;5043710;28;20021;-67
2022/04/25 12:17:51;;;;;;;5.28;2.92;;;;;;;;;;5038227;28;20025;-66
2022/04/25 12:20:19;;;;;;;4.90;2.97;;;;;;;;;;5041278;28;20028;-65
2022/04/25 12:22:56;;;;;;;13.15;2.90;;;;;;;;;;5039155;28;20036;-65
2022/04/25 12:25:24;;;;;;;4.30;2.75;;;;;;;;;;5040464;28;20030;-67
2022/04/25 12:28:15;;;;;;;4.05;2.55;;;;;;;;;;5042900;28;20045;-65
2022/04/25 12:30:57;;;;;;;5.53;2.72;;;;;;;;;;5036618;28;20029;-65
2022/04/25 12:33:44;;;;;;;8.57;2.60;;;;;;;;;;5040357;28;20024;-65
2022/04/25 12:36:16;;;;;;;4.97;2.53;;;;;;;;;;5039160;28;20064;-65
2022/04/25 12:39:00;;;;;;;8.00;2.70;;;;;;;;;;5040604;28;20036;-66
2022/04/25 12:41:34;;;;;;;7.57;2.75;;;;;;;;;;5037338;28;20040;-66
2022/04/25 12:44:10;;;;;;;5.47;2.60;;;;;;;;;;5041867;28;20421;-66
2022/04/25 12:46:41;;;;;;;4.00;2.55;;;;;;;;;;5041981;28;20406;-66
2022/04/25 12:49:15;;;;;;;5.63;2.58;;;;;;;;;;5041119;28;20536;-66
2022/04/25 12:51:47;;;;;;;9.35;3.08;;;;;;;;;;5040795;28;20029;-66
2022/04/25 12:54:32;;;;;;;3.33;2.08;;;;;;;;;;5039397;28;20136;-63
2022/04/25 12:57:18;;;;;;;5.60;2.40;;;;;;;;;;5041193;28;20675;-66
2022/04/25 12:59:52;;;;;;;4.78;2.70;;;;;;;;;;5039985;28;20103;-65
2022/04/25 13:02:32;;;;;;;6.40;2.47;;;;;;;;;;5050253;28;20127;-65
2022/04/25 13:05:00;;;;;;;5.28;1.98;;;;;;;;;;5036134;28;20528;-66
2022/04/25 13:07:30;;;;;;;5.20;2.42;;;;;;;;;;5036845;28;20037;-65
2022/04/25 13:10:01;;;;;;;4.05;2.10;;;;;;;;;;5040848;28;20033;-65
2022/04/25 13:12:33;;;;;;;5.43;2.20;;;;;;;;;;5037039;28;20417;-66
2022/04/25 13:15:00;;;;;;;3.97;2.28;;;;;;;;;;5041063;28;20036;-65
2022/04/25 13:17:26;;;;;;;6.15;2.63;;;;;;;;;;5037278;28;20087;-66
2022/04/25 13:19:52;;;;;;;5.50;2.70;;;;;;;;;;5039543;28;20021;-65
2022/04/25 13:22:18;;;;;;;13.95;2.63;;;;;;;;;;5033359;28;20756;-68
2022/04/25 13:24:47;;;;;;;5.75;2.65;;;;;;;;;;5046415;28;20029;-65
2022/04/25 13:27:13;;;;;;;9.90;2.80;;;;;;;;;;5040100;28;20026;-66
2022/04/25 13:29:39;;;;;;;5.97;2.90;;;;;;;;;;5036363;28;20037;-65
2022/04/25 13:32:05;;;;;;;5.10;2.33;;;;;;;;;;5033152;28;20037;-65
2022/04/25 13:34:31;;;;;;;5.13;2.78;;;;;;;;;;5038305;28;20030;-65
2022/04/25 13:37:00;;;;;;;6.03;2.58;;;;;;;;;;5036016;28;20497;-65
2022/04/25 13:39:25;;;;;;;7.95;3.00;;;;;;;;;;5043066;28;20110;-66
2022/04/25 13:41:54;;;;;;;9.25;2.88;;;;;;;;;;5035355;28;20498;-65
2022/04/25 13:44:20;;;;;;;8.48;3.05;;;;;;;;;;5034312;28;20021;-65
2022/04/25 13:46:47;;;;;;;5.35;2.97;;;;;;;;;;5034763;28;20076;-65
2022/04/25 13:49:13;;;;;;;8.93;3.13;;;;;;;;;;5039360;28;20041;-64
2022/04/25 13:51:39;;;;;;;13.48;3.17;;;;;;;;;;5035886;28;20041;-65
2022/04/25 13:54:05;;;;;;;5.38;2.80;;;;;;;;;;5038791;28;20052;-65
2022/04/25 13:59:15;;;;;;;9.82;2.80;;;;;;;;;;5039014;28;20052;-64
2022/04/25 14:01:41;;;;;;;10.90;2.95;;;;;;;;;;5035479;28;20030;-65
2022/04/25 14:04:07;;;;;;;8.35;3.78;;;;;;;;;;5036785;28;20049;-64
2022/04/25 14:06:33;;;;;;;8.68;3.50;;;;;;;;;;5071894;28;20045;-65
2022/04/25 14:08:58;;;;;;;5.97;3.03;;;;;;;;;;5037333;28;20482;-65
2022/04/25 14:11:27;;;;;;;7.43;3.10;;;;;;;;;;5039527;28;20029;-64
2022/04/25 14:13:53;;;;;;;10.88;3.63;;;;;;;;;;5032603;28;20026;-65
2022/04/25 14:16:19;;;;;;;9.05;3.33;;;;;;;;;;5044482;28;20021;-65
2022/04/25 14:18:45;;;;;;;9.20;3.47;;;;;;;;;;5039110;28;20414;-65
2022/04/25 14:21:10;;;;;;;6.55;3.63;;;;;;;;;;5038912;28;20028;-65
2022/04/25 14:23:36;;;;;;;5.75;2.83;;;;;;;;;;5035725;28;20037;-65
2022/04/25 14:26:03;;;;;;;11.20;3.88;;;;;;;;;;5033279;28;20025;-64
2022/04/25 14:28:29;;;;;;;8.27;3.33;;;;;;;;;;5033493;28;20394;-65
2022/04/25 14:30:55;;;;;;;11.57;3.33;;;;;;;;;;5037741;28;20034;-65
2022/04/25 14:33:22;;;;;;;13.25;3.20;;;;;;;;;;5037777;28;20079;-64
2022/04/25 14:35:51;;;;;;;9.05;3.22;;;;;;;;;;5042527;28;20029;-64
2022/04/25 14:38:22;;;;;;;9.13;2.85;;;;;;;;;;5034638;28;20033;-64
2022/04/25 14:40:55;;;;;;;7.50;3.00;;;;;;;;;;5034674;28;20040;-64
2022/04/25 14:43:24;;;;;;;6.70;3.25;;;;;;;;;;5038852;28;20029;-65
2022/04/25 14:45:50;;;;;;;23.88;3.97;;;;;;;;;;5033994;28;20071;-64
2022/04/25 14:48:19;;;;;;;6.85;2.78;;;;;;;;;;5035958;28;20022;-65
2022/04/25 14:56:14;;;;;;;12.85;2.80;;;;;;;;;;5033731;28;20069;-64
2022/04/25 14:58:39;;;;;;;4.07;2.35;;;;;;;;;;5043442;28;20064;-65
2022/04/25 15:01:05;;;;;;;4.50;2.10;;;;;;;;;;5036044;28;20032;-65
2022/04/25 15:03:31;;;;;;;4.70;2.40;;;;;;;;;;5037089;28;20044;-64
2022/04/25 15:05:57;;;;;;;4.32;2.40;;;;;;;;;;5037648;28;20035;-65
2022/04/25 15:08:23;;;;;;;6.28;2.90;;;;;;;;;;5037165;28;20025;-64
2022/04/25 15:10:49;;;;;;;4.68;2.35;;;;;;;;;;5037848;28;20047;-65
2022/04/25 15:13:15;;;;;;;7.95;2.53;;;;;;;;;;5037588;28;20036;-65
2022/04/25 15:15:42;;;;;;;11.23;3.05;;;;;;;;;;5039965;28;20040;-64
2022/04/25 15:18:09;;;;;;;15.50;3.45;;;;;;;;;;5037515;28;20025;-65
2022/04/25 15:20:35;;;;;;;9.95;2.65;;;;;;;;;;5034603;28;20040;-65
2022/04/25 15:23:05;;;;;;;11.18;3.25;;;;;;;;;;5030578;28;20116;-65
2022/04/25 15:25:32;;;;;;;7.80;2.88;;;;;;;;;;5035728;28;20021;-64
2022/04/25 15:28:03;;;;;;;6.18;2.67;;;;;;;;;;5032235;28;20048;-64
2022/04/25 15:30:30;;;;;;;7.85;2.90;;;;;;;;;;5041953;28;20428;-65
2022/04/25 15:32:56;;;;;;;8.35;2.83;;;;;;;;;;5038323;28;20147;-65